首页
METAR-TAF:

METAR-TAF

机场 :

北海, 马来西亚

纬度: 05-27-58N, 经度: 100-23-28E, 海拔: 2米

当前天气观测

该预报发布于38分钟前的00:00 UTC
风速2节,风向多变
温度 25°C
湿度 83%
气压 1010 hPa
能见度低于50米
少量云层高于2000英尺

METAR: WMKB 260000Z VRB02KT 0000 FEW020 25/22 Q1010 NOSIG

时间: 08:38 (00:38 UTC)

预报

该预报发布于1小时和38分钟前的23:00 UTC
预报有效从26日的 00点(UTC)到 27日的 00点(UTC)
风速3节,风向东转东北
能見度: 8000
少量云层高于2000英尺
成为
从 26日的 07点(UTC)到 26日的 09点(UTC)
风速10节,风向西转西北
少量云层高于1700英尺, 积雨云.
成为
从 26日的 11点(UTC)到 26日的 13点(UTC)
风速3节,风向多变
少量云层高于2400英尺

TAF: WMKB 252300Z 2600/2700 07003KT 8000 FEW020 BECMG 2607/2609 29010KT FEW017CB BECMG 2611/2613 VRB03KT FEW024

超过4000个机场的气象观测和天气预报(METAR&TAF报告)。

可查询的气象台以黄色和红色小点在地图上表示。

将鼠标移到小点上方,可查看气象台名称。

然后点击查看天气观测和预报。

如需切换地图:点击带黑十字的绿色按钮放大地图;点击带横线的绿色按钮缩小地图;或者点击绿色箭头查看邻近地区的地图。


METAR-TAF: